sensor_id;sensor_type;location;lat;lon;timestamp;P1;durP1;ratioP1;P2;durP2;ratioP2
7253;SDS011;4060;49.186;9.226;2022-09-09T00:01:49;1.30;;;0.98;;
7253;SDS011;4060;49.186;9.226;2022-09-09T00:04:27;1.77;;;1.15;;
7253;SDS011;4060;49.186;9.226;2022-09-09T00:07:00;2.25;;;1.00;;
7253;SDS011;4060;49.186;9.226;2022-09-09T00:09:38;2.20;;;1.20;;
7253;SDS011;4060;49.186;9.226;2022-09-09T00:12:15;1.20;;;0.90;;
7253;SDS011;4060;49.186;9.226;2022-09-09T00:14:54;2.47;;;0.93;;
7253;SDS011;4060;49.186;9.226;2022-09-09T00:17:31;1.73;;;1.10;;
7253;SDS011;4060;49.186;9.226;2022-09-09T00:20:09;1.52;;;0.90;;
7253;SDS011;4060;49.186;9.226;2022-09-09T00:22:43;1.45;;;0.88;;
7253;SDS011;4060;49.186;9.226;2022-09-09T00:25:22;1.33;;;1.00;;
7253;SDS011;4060;49.186;9.226;2022-09-09T00:27:56;1.00;;;0.90;;
7253;SDS011;4060;49.186;9.226;2022-09-09T00:30:27;1.38;;;0.90;;
7253;SDS011;4060;49.186;9.226;2022-09-09T00:33:03;1.63;;;1.10;;
7253;SDS011;4060;49.186;9.226;2022-09-09T00:35:42;1.70;;;1.00;;
7253;SDS011;4060;49.186;9.226;2022-09-09T00:38:15;1.25;;;1.00;;
7253;SDS011;4060;49.186;9.226;2022-09-09T00:40:53;1.60;;;0.90;;
7253;SDS011;4060;49.186;9.226;2022-09-09T00:43:35;1.10;;;0.90;;
7253;SDS011;4060;49.186;9.226;2022-09-09T00:46:16;1.70;;;1.15;;
7253;SDS011;4060;49.186;9.226;2022-09-09T00:49:22;1.17;;;0.77;;
7253;SDS011;4060;49.186;9.226;2022-09-09T00:52:03;1.60;;;1.02;;
7253;SDS011;4060;49.186;9.226;2022-09-09T00:54:44;1.25;;;1.00;;
7253;SDS011;4060;49.186;9.226;2022-09-09T00:57:25;1.55;;;1.00;;
7253;SDS011;4060;49.186;9.226;2022-09-09T00:59:58;1.52;;;0.73;;
7253;SDS011;4060;49.186;9.226;2022-09-09T01:02:47;1.52;;;1.00;;
7253;SDS011;4060;49.186;9.226;2022-09-09T01:05:48;2.03;;;1.13;;
7253;SDS011;4060;49.186;9.226;2022-09-09T01:08:39;1.42;;;1.10;;
7253;SDS011;4060;49.186;9.226;2022-09-09T01:11:27;1.35;;;1.10;;
7253;SDS011;4060;49.186;9.226;2022-09-09T01:14:14;2.25;;;1.50;;
7253;SDS011;4060;49.186;9.226;2022-09-09T01:16:53;2.08;;;1.13;;
7253;SDS011;4060;49.186;9.226;2022-09-09T01:19:27;1.35;;;1.10;;
7253;SDS011;4060;49.186;9.226;2022-09-09T01:22:08;1.30;;;1.00;;
7253;SDS011;4060;49.186;9.226;2022-09-09T01:24:48;2.53;;;1.20;;
7253;SDS011;4060;49.186;9.226;2022-09-09T01:27:44;1.17;;;0.82;;
7253;SDS011;4060;49.186;9.226;2022-09-09T01:30:16;1.20;;;0.95;;
7253;SDS011;4060;49.186;9.226;2022-09-09T01:32:46;1.85;;;1.20;;
7253;SDS011;4060;49.186;9.226;2022-09-09T01:35:27;1.02;;;0.80;;
7253;SDS011;4060;49.186;9.226;2022-09-09T01:38:06;1.58;;;1.00;;
7253;SDS011;4060;49.186;9.226;2022-09-09T01:40:35;2.22;;;1.02;;
7253;SDS011;4060;49.186;9.226;2022-09-09T01:43:07;1.00;;;0.90;;
7253;SDS011;4060;49.186;9.226;2022-09-09T01:45:37;1.83;;;1.00;;
7253;SDS011;4060;49.186;9.226;2022-09-09T01:48:08;2.33;;;1.05;;
7253;SDS011;4060;49.186;9.226;2022-09-09T01:50:38;1.73;;;1.15;;
7253;SDS011;4060;49.186;9.226;2022-09-09T01:53:07;1.05;;;0.95;;
7253;SDS011;4060;49.186;9.226;2022-09-09T01:55:37;1.92;;;1.17;;
7253;SDS011;4060;49.186;9.226;2022-09-09T01:58:25;1.50;;;0.95;;
7253;SDS011;4060;49.186;9.226;2022-09-09T02:01:04;1.15;;;0.98;;
7253;SDS011;4060;49.186;9.226;2022-09-09T02:03:43;1.63;;;1.08;;
7253;SDS011;4060;49.186;9.226;2022-09-09T02:06:21;2.45;;;1.02;;
7253;SDS011;4060;49.186;9.226;2022-09-09T02:08:56;1.58;;;0.88;;
7253;SDS011;4060;49.186;9.226;2022-09-09T02:11:28;1.75;;;1.00;;
7253;SDS011;4060;49.186;9.226;2022-09-09T02:14:02;1.33;;;0.98;;
7253;SDS011;4060;49.186;9.226;2022-09-09T02:16:37;2.70;;;1.08;;
7253;SDS011;4060;49.186;9.226;2022-09-09T02:19:11;2.85;;;0.90;;
7253;SDS011;4060;49.186;9.226;2022-09-09T02:21:44;1.17;;;0.90;;
7253;SDS011;4060;49.186;9.226;2022-09-09T02:24:14;3.05;;;1.10;;
7253;SDS011;4060;49.186;9.226;2022-09-09T02:26:44;1.75;;;1.08;;
7253;SDS011;4060;49.186;9.226;2022-09-09T02:29:19;1.23;;;0.90;;
7253;SDS011;4060;49.186;9.226;2022-09-09T02:31:52;0.90;;;0.80;;
7253;SDS011;4060;49.186;9.226;2022-09-09T02:34:25;1.65;;;1.10;;
7253;SDS011;4060;49.186;9.226;2022-09-09T02:36:55;2.47;;;1.33;;
7253;SDS011;4060;49.186;9.226;2022-09-09T02:39:28;1.48;;;1.02;;
7253;SDS011;4060;49.186;9.226;2022-09-09T02:41:58;1.50;;;0.98;;
7253;SDS011;4060;49.186;9.226;2022-09-09T02:44:32;0.95;;;0.85;;
7253;SDS011;4060;49.186;9.226;2022-09-09T02:47:07;1.05;;;0.90;;
7253;SDS011;4060;49.186;9.226;2022-09-09T02:49:47;1.80;;;0.90;;
7253;SDS011;4060;49.186;9.226;2022-09-09T02:52:26;1.55;;;0.90;;
7253;SDS011;4060;49.186;9.226;2022-09-09T02:55:04;2.67;;;0.88;;
7253;SDS011;4060;49.186;9.226;2022-09-09T02:57:40;1.30;;;0.70;;
7253;SDS011;4060;49.186;9.226;2022-09-09T03:00:15;1.55;;;0.90;;
7253;SDS011;4060;49.186;9.226;2022-09-09T03:02:44;1.60;;;0.90;;
7253;SDS011;4060;49.186;9.226;2022-09-09T03:05:13;2.72;;;1.20;;
7253;SDS011;4060;49.186;9.226;2022-09-09T03:07:43;2.35;;;0.90;;
7253;SDS011;4060;49.186;9.226;2022-09-09T03:10:12;1.23;;;0.80;;
7253;SDS011;4060;49.186;9.226;2022-09-09T03:12:41;1.25;;;0.90;;
7253;SDS011;4060;49.186;9.226;2022-09-09T03:15:11;1.40;;;0.70;;
7253;SDS011;4060;49.186;9.226;2022-09-09T03:17:42;1.40;;;0.80;;
7253;SDS011;4060;49.186;9.226;2022-09-09T03:20:11;1.50;;;0.70;;
7253;SDS011;4060;49.186;9.226;2022-09-09T03:22:41;1.73;;;0.90;;
7253;SDS011;4060;49.186;9.226;2022-09-09T03:25:11;1.85;;;1.05;;
7253;SDS011;4060;49.186;9.226;2022-09-09T03:27:41;1.42;;;0.70;;
7253;SDS011;4060;49.186;9.226;2022-09-09T03:30:10;1.13;;;0.80;;
7253;SDS011;4060;49.186;9.226;2022-09-09T03:32:42;2.60;;;1.10;;
7253;SDS011;4060;49.186;9.226;2022-09-09T03:35:12;2.60;;;0.98;;
7253;SDS011;4060;49.186;9.226;2022-09-09T03:37:42;1.55;;;0.80;;
7253;SDS011;4060;49.186;9.226;2022-09-09T03:40:11;1.25;;;0.80;;
7253;SDS011;4060;49.186;9.226;2022-09-09T03:42:40;1.65;;;0.75;;
7253;SDS011;4060;49.186;9.226;2022-09-09T03:45:09;1.20;;;0.90;;
7253;SDS011;4060;49.186;9.226;2022-09-09T03:47:40;2.17;;;1.00;;
7253;SDS011;4060;49.186;9.226;2022-09-09T03:50:09;1.23;;;0.90;;
7253;SDS011;4060;49.186;9.226;2022-09-09T03:52:39;1.30;;;0.80;;
7253;SDS011;4060;49.186;9.226;2022-09-09T03:55:10;1.60;;;0.80;;
7253;SDS011;4060;49.186;9.226;2022-09-09T03:57:39;1.77;;;1.10;;
7253;SDS011;4060;49.186;9.226;2022-09-09T04:00:09;2.08;;;0.93;;
7253;SDS011;4060;49.186;9.226;2022-09-09T04:02:40;1.52;;;0.80;;
7253;SDS011;4060;49.186;9.226;2022-09-09T04:05:11;1.65;;;0.98;;
7253;SDS011;4060;49.186;9.226;2022-09-09T04:07:41;1.13;;;0.88;;
7253;SDS011;4060;49.186;9.226;2022-09-09T04:10:10;1.50;;;0.80;;
7253;SDS011;4060;49.186;9.226;2022-09-09T04:12:39;2.60;;;0.90;;
7253;SDS011;4060;49.186;9.226;2022-09-09T04:15:09;1.25;;;0.80;;
7253;SDS011;4060;49.186;9.226;2022-09-09T04:17:40;1.33;;;0.90;;
7253;SDS011;4060;49.186;9.226;2022-09-09T04:20:09;1.85;;;0.90;;
7253;SDS011;4060;49.186;9.226;2022-09-09T04:22:39;1.77;;;0.73;;
7253;SDS011;4060;49.186;9.226;2022-09-09T04:25:08;1.70;;;0.80;;
7253;SDS011;4060;49.186;9.226;2022-09-09T04:27:37;1.70;;;0.80;;
7253;SDS011;4060;49.186;9.226;2022-09-09T04:30:07;1.83;;;0.90;;
7253;SDS011;4060;49.186;9.226;2022-09-09T04:32:40;1.25;;;0.93;;
7253;SDS011;4060;49.186;9.226;2022-09-09T04:35:09;2.15;;;1.10;;
7253;SDS011;4060;49.186;9.226;2022-09-09T04:37:39;1.70;;;0.90;;
7253;SDS011;4060;49.186;9.226;2022-09-09T04:40:08;1.65;;;0.90;;
7253;SDS011;4060;49.186;9.226;2022-09-09T04:42:38;2.17;;;1.10;;
7253;SDS011;4060;49.186;9.226;2022-09-09T04:45:10;2.28;;;0.80;;
7253;SDS011;4060;49.186;9.226;2022-09-09T04:47:42;1.80;;;0.93;;
7253;SDS011;4060;49.186;9.226;2022-09-09T04:50:11;1.13;;;0.80;;
7253;SDS011;4060;49.186;9.226;2022-09-09T04:52:41;1.73;;;1.00;;
7253;SDS011;4060;49.186;9.226;2022-09-09T04:55:10;1.67;;;0.95;;
7253;SDS011;4060;49.186;9.226;2022-09-09T04:57:40;0.95;;;0.68;;
7253;SDS011;4060;49.186;9.226;2022-09-09T05:00:10;1.10;;;0.85;;
7253;SDS011;4060;49.186;9.226;2022-09-09T05:02:42;1.25;;;0.80;;
7253;SDS011;4060;49.186;9.226;2022-09-09T05:05:12;1.40;;;0.80;;
7253;SDS011;4060;49.186;9.226;2022-09-09T05:07:41;0.95;;;0.70;;
7253;SDS011;4060;49.186;9.226;2022-09-09T05:10:11;1.05;;;0.70;;
7253;SDS011;4060;49.186;9.226;2022-09-09T05:12:41;2.78;;;0.70;;
7253;SDS011;4060;49.186;9.226;2022-09-09T05:15:10;1.27;;;0.80;;
7253;SDS011;4060;49.186;9.226;2022-09-09T05:17:43;1.27;;;0.70;;
7253;SDS011;4060;49.186;9.226;2022-09-09T05:20:12;0.73;;;0.60;;
7253;SDS011;4060;49.186;9.226;2022-09-09T05:22:41;1.33;;;0.77;;
7253;SDS011;4060;49.186;9.226;2022-09-09T05:25:11;0.65;;;0.60;;
7253;SDS011;4060;49.186;9.226;2022-09-09T05:27:40;1.10;;;0.88;;
7253;SDS011;4060;49.186;9.226;2022-09-09T05:30:10;1.65;;;0.93;;
7253;SDS011;4060;49.186;9.226;2022-09-09T05:32:39;1.85;;;0.80;;
7253;SDS011;4060;49.186;9.226;2022-09-09T05:35:11;0.90;;;0.60;;
7253;SDS011;4060;49.186;9.226;2022-09-09T05:37:40;1.85;;;0.85;;
7253;SDS011;4060;49.186;9.226;2022-09-09T05:40:10;1.35;;;0.70;;
7253;SDS011;4060;49.186;9.226;2022-09-09T05:42:40;1.75;;;0.98;;
7253;SDS011;4060;49.186;9.226;2022-09-09T05:45:10;1.50;;;0.73;;
7253;SDS011;4060;49.186;9.226;2022-09-09T05:47:39;2.30;;;0.90;;
7253;SDS011;4060;49.186;9.226;2022-09-09T05:50:09;2.00;;;0.95;;
7253;SDS011;4060;49.186;9.226;2022-09-09T05:52:41;1.20;;;0.70;;
7253;SDS011;4060;49.186;9.226;2022-09-09T05:55:10;1.05;;;0.80;;
7253;SDS011;4060;49.186;9.226;2022-09-09T05:57:40;1.80;;;1.02;;
7253;SDS011;4060;49.186;9.226;2022-09-09T06:00:09;0.88;;;0.77;;
7253;SDS011;4060;49.186;9.226;2022-09-09T06:02:41;0.93;;;0.82;;
7253;SDS011;4060;49.186;9.226;2022-09-09T06:05:13;1.10;;;0.60;;
7253;SDS011;4060;49.186;9.226;2022-09-09T06:07:43;1.10;;;0.65;;
7253;SDS011;4060;49.186;9.226;2022-09-09T06:10:12;1.92;;;0.98;;
7253;SDS011;4060;49.186;9.226;2022-09-09T06:12:42;0.55;;;0.55;;
7253;SDS011;4060;49.186;9.226;2022-09-09T06:15:11;1.08;;;0.70;;
7253;SDS011;4060;49.186;9.226;2022-09-09T06:17:41;0.73;;;0.65;;
7253;SDS011;4060;49.186;9.226;2022-09-09T06:20:15;1.58;;;0.80;;
7253;SDS011;4060;49.186;9.226;2022-09-09T06:22:44;1.55;;;0.68;;
7253;SDS011;4060;49.186;9.226;2022-09-09T06:25:14;0.82;;;0.65;;
7253;SDS011;4060;49.186;9.226;2022-09-09T06:27:49;0.40;;;0.40;;
7253;SDS011;4060;49.186;9.226;2022-09-09T06:30:18;1.55;;;0.90;;
7253;SDS011;4060;49.186;9.226;2022-09-09T06:32:47;1.65;;;0.90;;
7253;SDS011;4060;49.186;9.226;2022-09-09T06:35:19;1.05;;;0.68;;
7253;SDS011;4060;49.186;9.226;2022-09-09T06:37:48;0.93;;;0.80;;
7253;SDS011;4060;49.186;9.226;2022-09-09T06:40:18;0.80;;;0.60;;
7253;SDS011;4060;49.186;9.226;2022-09-09T06:42:48;1.60;;;0.70;;
7253;SDS011;4060;49.186;9.226;2022-09-09T06:45:17;1.10;;;0.70;;
7253;SDS011;4060;49.186;9.226;2022-09-09T06:47:46;1.38;;;0.80;;
7253;SDS011;4060;49.186;9.226;2022-09-09T06:50:15;1.27;;;0.65;;
7253;SDS011;4060;49.186;9.226;2022-09-09T06:52:46;1.20;;;0.73;;
7253;SDS011;4060;49.186;9.226;2022-09-09T06:55:17;1.42;;;0.70;;
7253;SDS011;4060;49.186;9.226;2022-09-09T06:57:46;1.02;;;0.70;;
7253;SDS011;4060;49.186;9.226;2022-09-09T07:00:17;2.47;;;1.00;;
7253;SDS011;4060;49.186;9.226;2022-09-09T07:02:47;1.30;;;0.73;;
7253;SDS011;4060;49.186;9.226;2022-09-09T07:05:18;0.57;;;0.57;;
7253;SDS011;4060;49.186;9.226;2022-09-09T07:07:48;1.27;;;0.70;;
7253;SDS011;4060;49.186;9.226;2022-09-09T07:10:18;0.85;;;0.80;;
7253;SDS011;4060;49.186;9.226;2022-09-09T07:12:50;0.93;;;0.80;;
7253;SDS011;4060;49.186;9.226;2022-09-09T07:15:20;1.92;;;0.70;;
7253;SDS011;4060;49.186;9.226;2022-09-09T07:17:49;1.00;;;0.75;;
7253;SDS011;4060;49.186;9.226;2022-09-09T07:20:21;0.75;;;0.70;;
7253;SDS011;4060;49.186;9.226;2022-09-09T07:22:49;2.28;;;0.75;;
7253;SDS011;4060;49.186;9.226;2022-09-09T07:25:23;0.70;;;0.70;;
7253;SDS011;4060;49.186;9.226;2022-09-09T07:27:53;1.33;;;0.60;;
7253;SDS011;4060;49.186;9.226;2022-09-09T07:30:23;0.98;;;0.80;;
7253;SDS011;4060;49.186;9.226;2022-09-09T07:32:52;0.65;;;0.55;;
7253;SDS011;4060;49.186;9.226;2022-09-09T07:35:24;1.35;;;0.77;;
7253;SDS011;4060;49.186;9.226;2022-09-09T07:37:54;2.40;;;0.77;;
7253;SDS011;4060;49.186;9.226;2022-09-09T07:40:24;4.95;;;0.80;;
7253;SDS011;4060;49.186;9.226;2022-09-09T07:42:53;1.45;;;0.70;;
7253;SDS011;4060;49.186;9.226;2022-09-09T07:45:22;1.17;;;0.65;;
7253;SDS011;4060;49.186;9.226;2022-09-09T07:47:54;1.00;;;0.65;;
7253;SDS011;4060;49.186;9.226;2022-09-09T07:50:25;1.65;;;0.80;;
7253;SDS011;4060;49.186;9.226;2022-09-09T07:52:55;1.85;;;0.73;;
7253;SDS011;4060;49.186;9.226;2022-09-09T07:55:25;1.80;;;0.75;;
7253;SDS011;4060;49.186;9.226;2022-09-09T07:57:56;1.23;;;0.70;;
7253;SDS011;4060;49.186;9.226;2022-09-09T08:00:25;1.70;;;0.73;;
7253;SDS011;4060;49.186;9.226;2022-09-09T08:02:55;1.35;;;0.80;;
7253;SDS011;4060;49.186;9.226;2022-09-09T08:05:28;1.35;;;0.80;;
7253;SDS011;4060;49.186;9.226;2022-09-09T08:07:58;1.98;;;0.90;;
7253;SDS011;4060;49.186;9.226;2022-09-09T08:10:29;1.88;;;0.70;;
7253;SDS011;4060;49.186;9.226;2022-09-09T08:12:59;1.73;;;0.70;;
7253;SDS011;4060;49.186;9.226;2022-09-09T08:15:28;1.50;;;0.70;;
7253;SDS011;4060;49.186;9.226;2022-09-09T08:18:00;3.03;;;1.08;;
7253;SDS011;4060;49.186;9.226;2022-09-09T08:20:32;1.73;;;0.80;;
7253;SDS011;4060;49.186;9.226;2022-09-09T08:23:03;1.63;;;0.70;;
7253;SDS011;4060;49.186;9.226;2022-09-09T08:25:33;1.58;;;0.75;;
7253;SDS011;4060;49.186;9.226;2022-09-09T08:28:03;3.63;;;0.90;;
7253;SDS011;4060;49.186;9.226;2022-09-09T08:30:33;2.30;;;0.98;;
7253;SDS011;4060;49.186;9.226;2022-09-09T08:33:03;2.42;;;0.88;;
7253;SDS011;4060;49.186;9.226;2022-09-09T08:35:36;1.92;;;0.75;;
7253;SDS011;4060;49.186;9.226;2022-09-09T08:38:05;1.20;;;0.80;;
7253;SDS011;4060;49.186;9.226;2022-09-09T08:40:35;2.65;;;0.73;;
7253;SDS011;4060;49.186;9.226;2022-09-09T08:43:15;1.77;;;0.90;;
7253;SDS011;4060;49.186;9.226;2022-09-09T08:45:49;1.30;;;0.80;;
7253;SDS011;4060;49.186;9.226;2022-09-09T08:48:29;2.65;;;0.90;;
7253;SDS011;4060;49.186;9.226;2022-09-09T08:51:12;2.15;;;0.90;;
7253;SDS011;4060;49.186;9.226;2022-09-09T08:53:44;2.25;;;1.00;;
7253;SDS011;4060;49.186;9.226;2022-09-09T08:56:18;2.22;;;0.88;;
7253;SDS011;4060;49.186;9.226;2022-09-09T08:58:50;2.55;;;0.90;;
7253;SDS011;4060;49.186;9.226;2022-09-09T09:01:35;2.28;;;0.98;;
7253;SDS011;4060;49.186;9.226;2022-09-09T09:04:21;3.85;;;1.23;;
7253;SDS011;4060;49.186;9.226;2022-09-09T09:07:07;2.17;;;0.70;;
7253;SDS011;4060;49.186;9.226;2022-09-09T09:09:46;2.60;;;0.90;;
7253;SDS011;4060;49.186;9.226;2022-09-09T09:12:27;3.25;;;0.95;;
7253;SDS011;4060;49.186;9.226;2022-09-09T09:15:00;3.00;;;0.80;;
7253;SDS011;4060;49.186;9.226;2022-09-09T09:17:35;1.30;;;0.80;;
7253;SDS011;4060;49.186;9.226;2022-09-09T09:20:11;1.90;;;0.90;;
7253;SDS011;4060;49.186;9.226;2022-09-09T09:22:47;2.67;;;0.93;;
7253;SDS011;4060;49.186;9.226;2022-09-09T09:25:19;2.40;;;0.90;;
7253;SDS011;4060;49.186;9.226;2022-09-09T09:27:56;2.40;;;0.82;;
7253;SDS011;4060;49.186;9.226;2022-09-09T09:30:34;2.53;;;0.80;;
7253;SDS011;4060;49.186;9.226;2022-09-09T09:33:11;1.65;;;0.93;;
7253;SDS011;4060;49.186;9.226;2022-09-09T09:35:47;1.58;;;0.63;;
7253;SDS011;4060;49.186;9.226;2022-09-09T09:38:21;2.28;;;0.80;;
7253;SDS011;4060;49.186;9.226;2022-09-09T09:40:53;2.63;;;0.90;;
7253;SDS011;4060;49.186;9.226;2022-09-09T09:43:26;2.08;;;0.75;;
7253;SDS011;4060;49.186;9.226;2022-09-09T09:45:57;1.75;;;0.80;;
7253;SDS011;4060;49.186;9.226;2022-09-09T09:48:26;3.47;;;0.85;;
7253;SDS011;4060;49.186;9.226;2022-09-09T09:50:57;1.95;;;0.70;;
7253;SDS011;4060;49.186;9.226;2022-09-09T09:53:31;3.17;;;0.90;;
7253;SDS011;4060;49.186;9.226;2022-09-09T09:56:03;1.65;;;0.88;;
7253;SDS011;4060;49.186;9.226;2022-09-09T09:58:37;2.85;;;0.95;;
7253;SDS011;4060;49.186;9.226;2022-09-09T10:01:22;1.83;;;0.90;;
7253;SDS011;4060;49.186;9.226;2022-09-09T10:03:54;1.80;;;0.80;;
7253;SDS011;4060;49.186;9.226;2022-09-09T10:06:29;0.80;;;0.68;;
7253;SDS011;4060;49.186;9.226;2022-09-09T10:09:02;2.75;;;0.80;;
7253;SDS011;4060;49.186;9.226;2022-09-09T10:11:49;2.22;;;0.80;;
7253;SDS011;4060;49.186;9.226;2022-09-09T10:14:30;2.30;;;1.05;;
7253;SDS011;4060;49.186;9.226;2022-09-09T10:17:09;1.80;;;0.77;;
7253;SDS011;4060;49.186;9.226;2022-09-09T10:19:49;2.00;;;0.57;;
7253;SDS011;4060;49.186;9.226;2022-09-09T10:22:28;1.60;;;0.65;;
7253;SDS011;4060;49.186;9.226;2022-09-09T10:25:07;2.53;;;0.60;;
7253;SDS011;4060;49.186;9.226;2022-09-09T10:28:07;1.75;;;0.80;;
7253;SDS011;4060;49.186;9.226;2022-09-09T10:31:01;1.35;;;0.73;;
7253;SDS011;4060;49.186;9.226;2022-09-09T10:33:50;1.25;;;0.70;;
7253;SDS011;4060;49.186;9.226;2022-09-09T10:36:26;0.80;;;0.50;;
7253;SDS011;4060;49.186;9.226;2022-09-09T10:38:57;1.45;;;0.63;;
7253;SDS011;4060;49.186;9.226;2022-09-09T10:41:42;1.38;;;0.70;;
7253;SDS011;4060;49.186;9.226;2022-09-09T10:44:25;1.60;;;0.70;;
7253;SDS011;4060;49.186;9.226;2022-09-09T10:47:15;1.88;;;0.55;;
7253;SDS011;4060;49.186;9.226;2022-09-09T10:50:14;1.05;;;0.50;;
7253;SDS011;4060;49.186;9.226;2022-09-09T10:53:00;1.35;;;0.60;;
7253;SDS011;4060;49.186;9.226;2022-09-09T10:55:40;1.98;;;0.77;;
7253;SDS011;4060;49.186;9.226;2022-09-09T10:58:15;1.73;;;0.70;;
7253;SDS011;4060;49.186;9.226;2022-09-09T11:00:51;1.70;;;0.70;;
7253;SDS011;4060;49.186;9.226;2022-09-09T11:03:25;1.38;;;0.55;;
7253;SDS011;4060;49.186;9.226;2022-09-09T11:05:57;1.25;;;0.60;;
7253;SDS011;4060;49.186;9.226;2022-09-09T11:08:30;1.10;;;0.55;;
7253;SDS011;4060;49.186;9.226;2022-09-09T11:11:02;1.58;;;0.57;;
7253;SDS011;4060;49.186;9.226;2022-09-09T11:13:42;0.93;;;0.52;;
7253;SDS011;4060;49.186;9.226;2022-09-09T11:16:17;3.22;;;0.80;;
7253;SDS011;4060;49.186;9.226;2022-09-09T11:18:54;2.65;;;0.63;;
7253;SDS011;4060;49.186;9.226;2022-09-09T11:21:29;1.20;;;0.50;;
7253;SDS011;4060;49.186;9.226;2022-09-09T11:24:03;3.88;;;0.80;;
7253;SDS011;4060;49.186;9.226;2022-09-09T11:26:39;2.22;;;0.60;;
7253;SDS011;4060;49.186;9.226;2022-09-09T11:32:29;0.90;;;0.50;;
7253;SDS011;4060;49.186;9.226;2022-09-09T11:35:23;1.10;;;0.50;;
7253;SDS011;4060;49.186;9.226;2022-09-09T11:40:56;1.98;;;0.70;;
7253;SDS011;4060;49.186;9.226;2022-09-09T11:43:29;1.17;;;0.77;;
7253;SDS011;4060;49.186;9.226;2022-09-09T11:46:03;1.42;;;0.57;;
7253;SDS011;4060;49.186;9.226;2022-09-09T11:48:34;2.15;;;0.90;;
7253;SDS011;4060;49.186;9.226;2022-09-09T11:51:06;4.50;;;0.93;;
7253;SDS011;4060;49.186;9.226;2022-09-09T11:53:47;1.60;;;0.50;;
7253;SDS011;4060;49.186;9.226;2022-09-09T11:56:25;2.70;;;0.70;;
7253;SDS011;4060;49.186;9.226;2022-09-09T11:58:58;1.63;;;0.63;;
7253;SDS011;4060;49.186;9.226;2022-09-09T12:01:39;1.58;;;0.70;;
7253;SDS011;4060;49.186;9.226;2022-09-09T12:04:13;2.60;;;0.82;;
7253;SDS011;4060;49.186;9.226;2022-09-09T12:06:59;2.42;;;0.70;;
7253;SDS011;4060;49.186;9.226;2022-09-09T12:09:46;0.98;;;0.70;;
7253;SDS011;4060;49.186;9.226;2022-09-09T12:12:25;1.90;;;0.60;;
7253;SDS011;4060;49.186;9.226;2022-09-09T12:14:57;2.05;;;0.60;;
7253;SDS011;4060;49.186;9.226;2022-09-09T12:17:50;1.50;;;0.57;;
7253;SDS011;4060;49.186;9.226;2022-09-09T12:20:21;2.00;;;0.63;;
7253;SDS011;4060;49.186;9.226;2022-09-09T12:25:57;1.52;;;0.70;;
7253;SDS011;4060;49.186;9.226;2022-09-09T12:28:42;2.42;;;0.60;;
7253;SDS011;4060;49.186;9.226;2022-09-09T12:31:21;3.67;;;0.80;;
7253;SDS011;4060;49.186;9.226;2022-09-09T12:34:02;1.25;;;0.77;;
7253;SDS011;4060;49.186;9.226;2022-09-09T12:36:39;1.60;;;0.60;;
7253;SDS011;4060;49.186;9.226;2022-09-09T12:39:16;1.33;;;0.50;;
7253;SDS011;4060;49.186;9.226;2022-09-09T12:41:53;1.20;;;0.65;;
7253;SDS011;4060;49.186;9.226;2022-09-09T12:44:25;1.23;;;0.50;;
7253;SDS011;4060;49.186;9.226;2022-09-09T12:46:56;1.50;;;0.60;;
7253;SDS011;4060;49.186;9.226;2022-09-09T12:49:32;1.23;;;0.55;;
7253;SDS011;4060;49.186;9.226;2022-09-09T12:52:06;1.58;;;0.57;;
7253;SDS011;4060;49.186;9.226;2022-09-09T12:54:43;1.38;;;0.60;;
7253;SDS011;4060;49.186;9.226;2022-09-09T12:57:14;1.98;;;0.57;;
7253;SDS011;4060;49.186;9.226;2022-09-09T12:59:45;1.67;;;0.57;;
7253;SDS011;4060;49.186;9.226;2022-09-09T13:02:18;0.60;;;0.38;;
7253;SDS011;4060;49.186;9.226;2022-09-09T13:04:52;0.60;;;0.40;;
7253;SDS011;4060;49.186;9.226;2022-09-09T13:07:22;0.80;;;0.40;;
7253;SDS011;4060;49.186;9.226;2022-09-09T13:09:52;0.57;;;0.35;;
7253;SDS011;4060;49.186;9.226;2022-09-09T13:12:22;2.63;;;0.50;;
7253;SDS011;4060;49.186;9.226;2022-09-09T13:14:52;0.93;;;0.50;;
7253;SDS011;4060;49.186;9.226;2022-09-09T13:17:24;1.25;;;0.50;;
7253;SDS011;4060;49.186;9.226;2022-09-09T13:19:57;1.63;;;0.50;;
7253;SDS011;4060;49.186;9.226;2022-09-09T13:22:29;1.30;;;0.40;;
7253;SDS011;4060;49.186;9.226;2022-09-09T13:25:02;2.30;;;0.40;;
7253;SDS011;4060;49.186;9.226;2022-09-09T13:27:37;1.10;;;0.50;;
7253;SDS011;4060;49.186;9.226;2022-09-09T13:30:21;4.32;;;0.63;;
7253;SDS011;4060;49.186;9.226;2022-09-09T13:33:06;0.82;;;0.50;;
7253;SDS011;4060;49.186;9.226;2022-09-09T13:35:53;1.33;;;0.50;;
7253;SDS011;4060;49.186;9.226;2022-09-09T13:38:25;1.52;;;0.65;;
7253;SDS011;4060;49.186;9.226;2022-09-09T13:40:55;1.27;;;0.50;;
7253;SDS011;4060;49.186;9.226;2022-09-09T13:43:28;1.05;;;0.60;;
7253;SDS011;4060;49.186;9.226;2022-09-09T13:46:00;1.70;;;0.50;;
7253;SDS011;4060;49.186;9.226;2022-09-09T13:48:30;1.48;;;0.50;;
7253;SDS011;4060;49.186;9.226;2022-09-09T13:51:02;1.20;;;0.45;;
7253;SDS011;4060;49.186;9.226;2022-09-09T13:53:32;1.55;;;0.60;;
7253;SDS011;4060;49.186;9.226;2022-09-09T13:56:02;0.68;;;0.60;;
7253;SDS011;4060;49.186;9.226;2022-09-09T13:58:31;0.88;;;0.40;;
7253;SDS011;4060;49.186;9.226;2022-09-09T14:01:00;2.15;;;0.50;;
7253;SDS011;4060;49.186;9.226;2022-09-09T14:03:30;1.25;;;0.40;;
7253;SDS011;4060;49.186;9.226;2022-09-09T14:06:02;0.85;;;0.55;;
7253;SDS011;4060;49.186;9.226;2022-09-09T14:08:33;1.35;;;0.52;;
7253;SDS011;4060;49.186;9.226;2022-09-09T14:11:04;2.95;;;0.60;;
7253;SDS011;4060;49.186;9.226;2022-09-09T14:13:39;2.53;;;0.60;;
7253;SDS011;4060;49.186;9.226;2022-09-09T14:16:09;2.13;;;0.65;;
7253;SDS011;4060;49.186;9.226;2022-09-09T14:18:38;1.13;;;0.55;;
7253;SDS011;4060;49.186;9.226;2022-09-09T14:21:09;2.15;;;0.63;;
7253;SDS011;4060;49.186;9.226;2022-09-09T14:23:39;1.20;;;0.60;;
7253;SDS011;4060;49.186;9.226;2022-09-09T14:26:08;1.92;;;0.80;;
7253;SDS011;4060;49.186;9.226;2022-09-09T14:28:39;1.83;;;0.70;;
7253;SDS011;4060;49.186;9.226;2022-09-09T14:31:12;1.95;;;0.70;;
7253;SDS011;4060;49.186;9.226;2022-09-09T14:33:43;1.42;;;0.70;;
7253;SDS011;4060;49.186;9.226;2022-09-09T14:36:15;1.25;;;0.70;;
7253;SDS011;4060;49.186;9.226;2022-09-09T14:38:45;1.27;;;0.68;;
7253;SDS011;4060;49.186;9.226;2022-09-09T14:41:15;1.55;;;0.60;;
7253;SDS011;4060;49.186;9.226;2022-09-09T14:43:48;3.10;;;0.80;;
7253;SDS011;4060;49.186;9.226;2022-09-09T14:46:18;2.28;;;0.80;;
7253;SDS011;4060;49.186;9.226;2022-09-09T14:48:49;2.10;;;1.00;;
7253;SDS011;4060;49.186;9.226;2022-09-09T14:51:21;1.98;;;0.80;;
7253;SDS011;4060;49.186;9.226;2022-09-09T14:53:53;0.95;;;0.70;;
7253;SDS011;4060;49.186;9.226;2022-09-09T14:56:24;1.50;;;0.60;;
7253;SDS011;4060;49.186;9.226;2022-09-09T14:58:56;1.67;;;0.90;;
7253;SDS011;4060;49.186;9.226;2022-09-09T15:01:27;0.93;;;0.52;;
7253;SDS011;4060;49.186;9.226;2022-09-09T15:03:58;1.25;;;0.77;;
7253;SDS011;4060;49.186;9.226;2022-09-09T15:06:31;1.50;;;0.70;;
7253;SDS011;4060;49.186;9.226;2022-09-09T15:09:05;2.80;;;0.70;;
7253;SDS011;4060;49.186;9.226;2022-09-09T15:11:36;0.85;;;0.60;;
7253;SDS011;4060;49.186;9.226;2022-09-09T15:14:07;1.02;;;0.60;;
7253;SDS011;4060;49.186;9.226;2022-09-09T15:16:38;1.55;;;0.82;;
7253;SDS011;4060;49.186;9.226;2022-09-09T15:19:07;1.55;;;0.80;;
7253;SDS011;4060;49.186;9.226;2022-09-09T15:21:39;2.03;;;0.68;;
7253;SDS011;4060;49.186;9.226;2022-09-09T15:24:09;1.00;;;0.50;;
7253;SDS011;4060;49.186;9.226;2022-09-09T15:26:39;1.10;;;0.57;;
7253;SDS011;4060;49.186;9.226;2022-09-09T15:29:09;1.58;;;0.70;;
7253;SDS011;4060;49.186;9.226;2022-09-09T15:31:39;1.23;;;0.60;;
7253;SDS011;4060;49.186;9.226;2022-09-09T15:34:08;1.38;;;0.80;;
7253;SDS011;4060;49.186;9.226;2022-09-09T15:36:42;1.35;;;0.68;;
7253;SDS011;4060;49.186;9.226;2022-09-09T15:39:13;0.82;;;0.55;;
7253;SDS011;4060;49.186;9.226;2022-09-09T15:41:45;1.58;;;0.63;;
7253;SDS011;4060;49.186;9.226;2022-09-09T15:44:15;1.67;;;0.90;;
7253;SDS011;4060;49.186;9.226;2022-09-09T15:46:46;1.60;;;0.70;;
7253;SDS011;4060;49.186;9.226;2022-09-09T15:49:20;1.50;;;0.70;;
7253;SDS011;4060;49.186;9.226;2022-09-09T15:51:54;1.63;;;0.70;;
7253;SDS011;4060;49.186;9.226;2022-09-09T15:54:24;0.57;;;0.50;;
7253;SDS011;4060;49.186;9.226;2022-09-09T15:56:55;1.65;;;0.60;;
7253;SDS011;4060;49.186;9.226;2022-09-09T15:59:26;1.10;;;0.70;;
7253;SDS011;4060;49.186;9.226;2022-09-09T16:01:56;1.30;;;0.75;;
7253;SDS011;4060;49.186;9.226;2022-09-09T16:04:26;1.48;;;0.50;;